sensor_id;sensor_type;location;lat;lon;timestamp;pressure;altitude;pressure_sealevel;temperature;humidity
70072;BME280;57434;42.794;23.302;2023-01-31T00:01:21;95256.97;;;-2.05;78.44
70072;BME280;57434;42.794;23.302;2023-01-31T00:02:24;95245.16;;;-2.25;78.79
70072;BME280;57434;42.794;23.302;2023-01-31T00:03:25;95259.31;;;-2.27;78.91
70072;BME280;57434;42.794;23.302;2023-01-31T00:04:27;95199.25;;;-2.48;79.05
70072;BME280;57434;42.794;23.302;2023-01-31T00:05:29;95260.81;;;-2.22;79.14
70072;BME280;57434;42.794;23.302;2023-01-31T00:06:33;95259.44;;;-2.34;79.30
70072;BME280;57434;42.794;23.302;2023-01-31T00:07:35;95226.09;;;-2.36;79.70
70072;BME280;57434;42.794;23.302;2023-01-31T00:08:37;95250.53;;;-2.18;79.65
70072;BME280;57434;42.794;23.302;2023-01-31T00:09:40;95244.16;;;-2.12;79.66
70072;BME280;57434;42.794;23.302;2023-01-31T00:10:41;95222.81;;;-2.27;79.58
70072;BME280;57434;42.794;23.302;2023-01-31T00:11:43;95186.16;;;-2.64;79.66
70072;BME280;57434;42.794;23.302;2023-01-31T00:12:45;95245.78;;;-2.14;79.69
70072;BME280;57434;42.794;23.302;2023-01-31T00:13:47;95210.53;;;-2.43;79.67
70072;BME280;57434;42.794;23.302;2023-01-31T00:14:49;95237.03;;;-2.32;79.64
70072;BME280;57434;42.794;23.302;2023-01-31T00:15:51;95248.63;;;-2.21;79.47
70072;BME280;57434;42.794;23.302;2023-01-31T00:16:56;95282.75;;;-2.19;79.64
70072;BME280;57434;42.794;23.302;2023-01-31T00:17:58;95243.31;;;-2.32;79.73
70072;BME280;57434;42.794;23.302;2023-01-31T00:19:00;95254.06;;;-2.18;79.63
70072;BME280;57434;42.794;23.302;2023-01-31T00:20:02;95255.84;;;-2.31;79.61
70072;BME280;57434;42.794;23.302;2023-01-31T00:22:10;95249.38;;;-1.97;79.34
70072;BME280;57434;42.794;23.302;2023-01-31T00:23:12;95228.88;;;-2.13;79.24
70072;BME280;57434;42.794;23.302;2023-01-31T00:24:14;95221.47;;;-2.16;78.80
70072;BME280;57434;42.794;23.302;2023-01-31T00:25:16;95232.66;;;-2.07;78.87
70072;BME280;57434;42.794;23.302;2023-01-31T00:26:38;95240.72;;;-1.96;78.74
70072;BME280;57434;42.794;23.302;2023-01-31T00:27:40;95194.06;;;-2.43;78.65
70072;BME280;57434;42.794;23.302;2023-01-31T00:28:43;95234.34;;;-2.13;78.96
70072;BME280;57434;42.794;23.302;2023-01-31T00:29:45;95255.41;;;-2.06;78.98
70072;BME280;57434;42.794;23.302;2023-01-31T00:30:47;95252.63;;;-2.03;79.25
70072;BME280;57434;42.794;23.302;2023-01-31T00:31:49;95139.16;;;-2.66;79.11
70072;BME280;57434;42.794;23.302;2023-01-31T00:32:52;95237.91;;;-1.92;79.09
70072;BME280;57434;42.794;23.302;2023-01-31T00:33:54;95105.53;;;-2.93;78.47
70072;BME280;57434;42.794;23.302;2023-01-31T00:34:56;95254.28;;;-2.09;78.59
70072;BME280;57434;42.794;23.302;2023-01-31T00:35:57;95211.97;;;-2.34;78.77
70072;BME280;57434;42.794;23.302;2023-01-31T00:36:59;95200.34;;;-2.42;79.08
70072;BME280;57434;42.794;23.302;2023-01-31T00:38:01;95157.81;;;-2.57;79.12
70072;BME280;57434;42.794;23.302;2023-01-31T00:39:04;95237.66;;;-2.02;79.13
70072;BME280;57434;42.794;23.302;2023-01-31T00:40:06;95235.97;;;-2.15;78.78
70072;BME280;57434;42.794;23.302;2023-01-31T00:41:08;95239.03;;;-1.90;78.77
70072;BME280;57434;42.794;23.302;2023-01-31T00:42:10;95215.69;;;-2.02;78.61
70072;BME280;57434;42.794;23.302;2023-01-31T00:43:12;95216.16;;;-2.07;78.32
70072;BME280;57434;42.794;23.302;2023-01-31T00:44:14;95241.06;;;-1.94;78.52
70072;BME280;57434;42.794;23.302;2023-01-31T00:45:16;95073.22;;;-3.09;78.30
70072;BME280;57434;42.794;23.302;2023-01-31T00:46:18;95226.25;;;-2.00;78.77
70072;BME280;57434;42.794;23.302;2023-01-31T00:47:20;95225.00;;;-1.95;78.61
70072;BME280;57434;42.794;23.302;2023-01-31T00:48:22;95190.22;;;-2.06;78.27
70072;BME280;57434;42.794;23.302;2023-01-31T00:49:24;95234.38;;;-1.73;78.09
70072;BME280;57434;42.794;23.302;2023-01-31T00:50:26;95254.88;;;-1.97;77.48
70072;BME280;57434;42.794;23.302;2023-01-31T00:51:27;95192.50;;;-2.00;77.56
70072;BME280;57434;42.794;23.302;2023-01-31T00:52:29;95221.47;;;-1.76;77.53
70072;BME280;57434;42.794;23.302;2023-01-31T00:53:31;95187.78;;;-2.00;77.34
70072;BME280;57434;42.794;23.302;2023-01-31T00:54:33;95224.53;;;-1.71;77.45
70072;BME280;57434;42.794;23.302;2023-01-31T00:55:35;95203.22;;;-1.86;77.28
70072;BME280;57434;42.794;23.302;2023-01-31T00:56:37;95224.09;;;-1.69;77.04
70072;BME280;57434;42.794;23.302;2023-01-31T00:57:39;95240.88;;;-1.63;77.23
70072;BME280;57434;42.794;23.302;2023-01-31T00:58:41;95237.19;;;-1.77;77.46
70072;BME280;57434;42.794;23.302;2023-01-31T00:59:43;95225.00;;;-1.95;77.86
70072;BME280;57434;42.794;23.302;2023-01-31T01:00:45;95185.63;;;-2.32;78.07
70072;BME280;57434;42.794;23.302;2023-01-31T01:01:47;95223.44;;;-1.96;78.30
70072;BME280;57434;42.794;23.302;2023-01-31T01:02:49;95243.09;;;-1.98;78.19
70072;BME280;57434;42.794;23.302;2023-01-31T01:03:51;95246.94;;;-1.92;78.41
70072;BME280;57434;42.794;23.302;2023-01-31T01:04:53;95245.31;;;-1.89;78.45
70072;BME280;57434;42.794;23.302;2023-01-31T01:05:55;95219.06;;;-2.14;78.96
70072;BME280;57434;42.794;23.302;2023-01-31T01:06:57;95243.66;;;-2.07;78.74
70072;BME280;57434;42.794;23.302;2023-01-31T01:07:58;95255.53;;;-1.90;78.75
70072;BME280;57434;42.794;23.302;2023-01-31T01:09:00;95246.03;;;-1.85;78.62
70072;BME280;57434;42.794;23.302;2023-01-31T01:10:03;95170.34;;;-2.33;78.54
70072;BME280;57434;42.794;23.302;2023-01-31T01:11:10;95248.78;;;-1.85;78.55
70072;BME280;57434;42.794;23.302;2023-01-31T01:12:12;95228.66;;;-2.02;78.42
70072;BME280;57434;42.794;23.302;2023-01-31T01:13:14;95215.31;;;-2.04;78.57
70072;BME280;57434;42.794;23.302;2023-01-31T01:14:16;95227.63;;;-1.88;78.01
70072;BME280;57434;42.794;23.302;2023-01-31T01:15:19;95246.22;;;-1.76;77.46
70072;BME280;57434;42.794;23.302;2023-01-31T01:16:24;95205.53;;;-2.05;77.53
70072;BME280;57434;42.794;23.302;2023-01-31T01:17:26;95220.28;;;-1.95;77.77
70072;BME280;57434;42.794;23.302;2023-01-31T01:18:28;95235.72;;;-1.81;77.92
70072;BME280;57434;42.794;23.302;2023-01-31T01:19:30;95165.50;;;-2.25;77.64
70072;BME280;57434;42.794;23.302;2023-01-31T01:20:34;95207.84;;;-2.03;77.57
70072;BME280;57434;42.794;23.302;2023-01-31T01:21:35;95127.97;;;-2.55;77.50
70072;BME280;57434;42.794;23.302;2023-01-31T01:22:37;95247.66;;;-1.88;77.55
70072;BME280;57434;42.794;23.302;2023-01-31T01:23:40;95235.28;;;-1.99;77.25
70072;BME280;57434;42.794;23.302;2023-01-31T01:24:43;95243.84;;;-1.74;77.44
70072;BME280;57434;42.794;23.302;2023-01-31T01:25:45;95228.69;;;-1.82;77.39
70072;BME280;57434;42.794;23.302;2023-01-31T01:26:46;95120.88;;;-2.53;77.08
70072;BME280;57434;42.794;23.302;2023-01-31T01:27:48;95206.41;;;-1.88;77.09
70072;BME280;57434;42.794;23.302;2023-01-31T01:28:52;95213.53;;;-1.90;77.01
70072;BME280;57434;42.794;23.302;2023-01-31T01:29:54;95233.75;;;-1.81;76.91
70072;BME280;57434;42.794;23.302;2023-01-31T01:30:56;95241.78;;;-1.70;77.00
70072;BME280;57434;42.794;23.302;2023-01-31T01:31:58;95241.09;;;-1.74;77.04
70072;BME280;57434;42.794;23.302;2023-01-31T01:33:00;95082.56;;;-2.83;77.10
70072;BME280;57434;42.794;23.302;2023-01-31T01:34:04;95149.06;;;-2.29;77.16
70072;BME280;57434;42.794;23.302;2023-01-31T01:35:07;95197.09;;;-1.94;77.21
70072;BME280;57434;42.794;23.302;2023-01-31T01:36:12;95226.56;;;-1.75;77.34
70072;BME280;57434;42.794;23.302;2023-01-31T01:37:14;95247.06;;;-1.79;77.74
70072;BME280;57434;42.794;23.302;2023-01-31T01:38:16;95275.16;;;-1.68;77.65
70072;BME280;57434;42.794;23.302;2023-01-31T01:39:18;95242.69;;;-1.77;77.35
70072;BME280;57434;42.794;23.302;2023-01-31T01:40:20;95241.94;;;-1.77;77.77
70072;BME280;57434;42.794;23.302;2023-01-31T01:41:22;95244.59;;;-1.74;78.01
70072;BME280;57434;42.794;23.302;2023-01-31T01:42:25;95051.56;;;-3.03;78.05
70072;BME280;57434;42.794;23.302;2023-01-31T01:43:53;95254.06;;;-1.75;78.34
70072;BME280;57434;42.794;23.302;2023-01-31T01:44:57;95100.91;;;-2.77;78.21
70072;BME280;57434;42.794;23.302;2023-01-31T01:45:59;95250.59;;;-1.79;78.46
70072;BME280;57434;42.794;23.302;2023-01-31T01:47:01;95218.31;;;-1.94;78.55
70072;BME280;57434;42.794;23.302;2023-01-31T01:48:05;95242.00;;;-1.81;78.53
70072;BME280;57434;42.794;23.302;2023-01-31T01:49:30;95249.47;;;-1.81;78.61
70072;BME280;57434;42.794;23.302;2023-01-31T01:50:39;95107.81;;;-2.68;78.45
70072;BME280;57434;42.794;23.302;2023-01-31T01:51:42;95256.09;;;-1.79;78.27
70072;BME280;57434;42.794;23.302;2023-01-31T01:53:16;95248.25;;;-1.80;78.29
70072;BME280;57434;42.794;23.302;2023-01-31T01:54:23;95217.53;;;-1.95;78.20
70072;BME280;57434;42.794;23.302;2023-01-31T01:55:35;95237.06;;;-1.89;78.00
70072;BME280;57434;42.794;23.302;2023-01-31T01:56:42;95255.06;;;-1.85;78.06
70072;BME280;57434;42.794;23.302;2023-01-31T01:57:47;95243.41;;;-1.92;78.25
70072;BME280;57434;42.794;23.302;2023-01-31T01:58:58;95250.34;;;-2.08;78.50
70072;BME280;57434;42.794;23.302;2023-01-31T02:00:13;95193.31;;;-2.23;78.87
70072;BME280;57434;42.794;23.302;2023-01-31T02:01:15;95220.03;;;-2.24;78.96
70072;BME280;57434;42.794;23.302;2023-01-31T02:02:18;95185.78;;;-2.39;78.98
70072;BME280;57434;42.794;23.302;2023-01-31T02:03:20;95157.25;;;-2.68;79.16
70072;BME280;57434;42.794;23.302;2023-01-31T02:04:28;95256.78;;;-1.94;78.91
70072;BME280;57434;42.794;23.302;2023-01-31T02:05:45;95076.16;;;-2.96;78.29
70072;BME280;57434;42.794;23.302;2023-01-31T02:06:47;95247.94;;;-1.82;78.19
70072;BME280;57434;42.794;23.302;2023-01-31T02:07:50;95192.19;;;-2.26;77.98
70072;BME280;57434;42.794;23.302;2023-01-31T02:08:53;95179.75;;;-2.34;77.57
70072;BME280;57434;42.794;23.302;2023-01-31T02:10:18;95091.72;;;-2.66;77.42
70072;BME280;57434;42.794;23.302;2023-01-31T02:11:27;95268.16;;;-1.73;77.32
70072;BME280;57434;42.794;23.302;2023-01-31T02:12:31;95194.47;;;-2.01;77.16
70072;BME280;57434;42.794;23.302;2023-01-31T02:13:34;95226.63;;;-1.78;77.31
70072;BME280;57434;42.794;23.302;2023-01-31T02:14:36;95231.09;;;-1.84;77.45
70072;BME280;57434;42.794;23.302;2023-01-31T02:15:38;95201.81;;;-2.14;77.65
70072;BME280;57434;42.794;23.302;2023-01-31T02:16:40;95232.97;;;-1.81;77.43
70072;BME280;57434;42.794;23.302;2023-01-31T02:17:42;95226.38;;;-1.84;77.69
70072;BME280;57434;42.794;23.302;2023-01-31T02:18:44;95229.59;;;-1.89;77.50
70072;BME280;57434;42.794;23.302;2023-01-31T02:21:43;95031.00;;;-3.15;77.82
70072;BME280;57434;42.794;23.302;2023-01-31T02:24:23;95245.78;;;-1.94;78.26
70072;BME280;57434;42.794;23.302;2023-01-31T02:27:42;95231.69;;;-1.96;78.55
70072;BME280;57434;42.794;23.302;2023-01-31T02:29:02;95079.31;;;-2.98;78.78
70072;BME280;57434;42.794;23.302;2023-01-31T02:33:22;95144.97;;;-2.64;79.43
70072;BME280;57434;42.794;23.302;2023-01-31T02:35:01;95255.13;;;-1.88;79.48
70072;BME280;57434;42.794;23.302;2023-01-31T02:39:11;95244.59;;;-1.93;79.54
70072;BME280;57434;42.794;23.302;2023-01-31T02:46:35;95248.91;;;-1.73;78.74
70072;BME280;57434;42.794;23.302;2023-01-31T02:49:14;95250.09;;;-1.74;78.19
70072;BME280;57434;42.794;23.302;2023-01-31T02:50:26;95238.09;;;-2.03;77.88
70072;BME280;57434;42.794;23.302;2023-01-31T02:51:35;95265.78;;;-1.71;77.66
70072;BME280;57434;42.794;23.302;2023-01-31T02:52:53;95258.22;;;-1.86;77.84
70072;BME280;57434;42.794;23.302;2023-01-31T02:54:10;95268.59;;;-1.74;78.04
70072;BME280;57434;42.794;23.302;2023-01-31T02:56:32;95223.72;;;-2.11;78.03
70072;BME280;57434;42.794;23.302;2023-01-31T02:57:37;95273.94;;;-1.87;78.18
70072;BME280;57434;42.794;23.302;2023-01-31T02:58:42;95276.41;;;-1.73;78.15
70072;BME280;57434;42.794;23.302;2023-01-31T02:59:45;95279.22;;;-1.76;78.06
70072;BME280;57434;42.794;23.302;2023-01-31T03:00:48;95196.84;;;-2.23;77.98
70072;BME280;57434;42.794;23.302;2023-01-31T03:01:57;95246.09;;;-1.89;77.94
70072;BME280;57434;42.794;23.302;2023-01-31T03:03:02;95282.56;;;-1.65;77.84
70072;BME280;57434;42.794;23.302;2023-01-31T03:04:10;95288.06;;;-1.65;77.43
70072;BME280;57434;42.794;23.302;2023-01-31T03:05:17;95307.38;;;-1.69;77.56
70072;BME280;57434;42.794;23.302;2023-01-31T03:07:26;95271.69;;;-1.72;77.32
70072;BME280;57434;42.794;23.302;2023-01-31T03:08:29;95297.03;;;-1.61;77.48
70072;BME280;57434;42.794;23.302;2023-01-31T03:09:33;95297.75;;;-1.57;77.05
70072;BME280;57434;42.794;23.302;2023-01-31T03:11:04;95298.84;;;-1.54;76.75
70072;BME280;57434;42.794;23.302;2023-01-31T03:12:28;95305.56;;;-1.55;76.67
70072;BME280;57434;42.794;23.302;2023-01-31T03:14:07;95307.69;;;-1.63;76.91
70072;BME280;57434;42.794;23.302;2023-01-31T03:15:35;95310.84;;;-1.64;77.04
70072;BME280;57434;42.794;23.302;2023-01-31T03:16:49;95186.31;;;-2.48;77.20
70072;BME280;57434;42.794;23.302;2023-01-31T03:18:00;95282.13;;;-1.83;77.52
70072;BME280;57434;42.794;23.302;2023-01-31T03:19:19;95296.91;;;-1.77;77.35
70072;BME280;57434;42.794;23.302;2023-01-31T03:20:31;95302.22;;;-1.86;77.73
70072;BME280;57434;42.794;23.302;2023-01-31T03:21:39;95302.94;;;-1.82;78.09
70072;BME280;57434;42.794;23.302;2023-01-31T03:24:20;95318.72;;;-1.86;77.89
70072;BME280;57434;42.794;23.302;2023-01-31T03:25:24;95330.75;;;-1.80;77.62
70072;BME280;57434;42.794;23.302;2023-01-31T03:26:28;95324.94;;;-1.82;77.50
70072;BME280;57434;42.794;23.302;2023-01-31T03:27:30;95331.47;;;-1.76;77.47
70072;BME280;57434;42.794;23.302;2023-01-31T03:28:34;95184.66;;;-2.65;77.23
70072;BME280;57434;42.794;23.302;2023-01-31T03:29:37;95316.22;;;-1.81;76.84
70072;BME280;57434;42.794;23.302;2023-01-31T03:30:53;95313.00;;;-1.76;76.47
70072;BME280;57434;42.794;23.302;2023-01-31T03:32:01;95327.22;;;-1.57;76.34
70072;BME280;57434;42.794;23.302;2023-01-31T03:33:16;95324.53;;;-1.61;76.05
70072;BME280;57434;42.794;23.302;2023-01-31T03:34:20;95296.22;;;-1.81;76.10
70072;BME280;57434;42.794;23.302;2023-01-31T03:35:24;95282.31;;;-1.94;76.02
70072;BME280;57434;42.794;23.302;2023-01-31T03:37:40;95344.31;;;-1.70;75.93
70072;BME280;57434;42.794;23.302;2023-01-31T03:40:09;95324.00;;;-1.76;76.09
70072;BME280;57434;42.794;23.302;2023-01-31T03:44:02;95292.59;;;-2.21;76.21
70072;BME280;57434;42.794;23.302;2023-01-31T03:45:22;95234.13;;;-2.45;76.42
70072;BME280;57434;42.794;23.302;2023-01-31T03:46:32;95330.44;;;-1.82;76.46
70072;BME280;57434;42.794;23.302;2023-01-31T03:47:40;95342.94;;;-1.81;76.52
70072;BME280;57434;42.794;23.302;2023-01-31T03:48:46;95342.84;;;-1.97;76.68
70072;BME280;57434;42.794;23.302;2023-01-31T03:49:50;95313.31;;;-1.93;76.75
70072;BME280;57434;42.794;23.302;2023-01-31T03:50:57;95295.28;;;-2.18;76.77
70072;BME280;57434;42.794;23.302;2023-01-31T03:52:05;95323.25;;;-1.99;76.86
70072;BME280;57434;42.794;23.302;2023-01-31T03:53:21;95340.56;;;-1.79;77.10
70072;BME280;57434;42.794;23.302;2023-01-31T03:54:29;95335.69;;;-1.91;77.09
70072;BME280;57434;42.794;23.302;2023-01-31T03:55:54;95333.03;;;-1.75;77.35
70072;BME280;57434;42.794;23.302;2023-01-31T03:57:01;95314.41;;;-1.87;77.22
70072;BME280;57434;42.794;23.302;2023-01-31T03:58:05;95318.72;;;-1.86;77.61
70072;BME280;57434;42.794;23.302;2023-01-31T03:59:14;95335.34;;;-1.74;77.63
70072;BME280;57434;42.794;23.302;2023-01-31T04:00:18;95319.28;;;-1.75;77.61
70072;BME280;57434;42.794;23.302;2023-01-31T04:01:23;95209.94;;;-2.54;77.90
70072;BME280;57434;42.794;23.302;2023-01-31T04:02:32;95184.88;;;-2.79;77.87
70072;BME280;57434;42.794;23.302;2023-01-31T04:03:47;95328.19;;;-1.67;78.29
70072;BME280;57434;42.794;23.302;2023-01-31T04:04:58;95339.00;;;-1.80;78.63
70072;BME280;57434;42.794;23.302;2023-01-31T04:06:04;95244.75;;;-2.71;79.07
70072;BME280;57434;42.794;23.302;2023-01-31T04:07:06;95282.28;;;-2.14;79.65
70072;BME280;57434;42.794;23.302;2023-01-31T04:08:08;95341.59;;;-1.93;80.00
70072;BME280;57434;42.794;23.302;2023-01-31T04:09:10;95330.34;;;-2.02;80.09
70072;BME280;57434;42.794;23.302;2023-01-31T04:10:15;95350.09;;;-1.84;80.18
70072;BME280;57434;42.794;23.302;2023-01-31T04:11:19;95352.47;;;-1.86;80.39
70072;BME280;57434;42.794;23.302;2023-01-31T04:12:22;95281.81;;;-2.36;80.59
70072;BME280;57434;42.794;23.302;2023-01-31T04:13:24;95354.88;;;-1.88;80.48
70072;BME280;57434;42.794;23.302;2023-01-31T04:14:26;95305.81;;;-2.13;80.67
70072;BME280;57434;42.794;23.302;2023-01-31T04:15:28;95352.75;;;-1.80;80.80
70072;BME280;57434;42.794;23.302;2023-01-31T04:16:30;95223.56;;;-2.70;80.68
70072;BME280;57434;42.794;23.302;2023-01-31T04:17:32;95336.50;;;-1.71;80.61
70072;BME280;57434;42.794;23.302;2023-01-31T04:18:34;95140.47;;;-2.97;80.11
70072;BME280;57434;42.794;23.302;2023-01-31T04:19:39;95304.81;;;-1.79;79.87
70072;BME280;57434;42.794;23.302;2023-01-31T04:20:41;95338.59;;;-1.55;80.04
70072;BME280;57434;42.794;23.302;2023-01-31T04:21:42;95337.81;;;-1.56;79.78
70072;BME280;57434;42.794;23.302;2023-01-31T04:22:44;95211.38;;;-2.46;79.84
70072;BME280;57434;42.794;23.302;2023-01-31T04:23:46;95074.09;;;-3.39;79.67
70072;BME280;57434;42.794;23.302;2023-01-31T04:24:48;95357.19;;;-1.63;79.96
70072;BME280;57434;42.794;23.302;2023-01-31T04:25:52;95356.75;;;-1.61;79.63
70072;BME280;57434;42.794;23.302;2023-01-31T04:26:54;95369.50;;;-1.71;79.91
70072;BME280;57434;42.794;23.302;2023-01-31T04:27:56;95219.44;;;-2.58;79.61
70072;BME280;57434;42.794;23.302;2023-01-31T04:28:58;95375.25;;;-1.62;79.96
70072;BME280;57434;42.794;23.302;2023-01-31T04:29:59;95324.97;;;-1.86;79.87
70072;BME280;57434;42.794;23.302;2023-01-31T04:31:01;95358.03;;;-1.66;80.00
70072;BME280;57434;42.794;23.302;2023-01-31T04:32:03;95349.16;;;-1.77;79.99
70072;BME280;57434;42.794;23.302;2023-01-31T04:33:05;95329.75;;;-1.90;79.74
70072;BME280;57434;42.794;23.302;2023-01-31T04:34:07;95355.38;;;-1.73;79.87
70072;BME280;57434;42.794;23.302;2023-01-31T04:35:09;95347.19;;;-1.77;79.82
70072;BME280;57434;42.794;23.302;2023-01-31T04:36:11;95346.78;;;-1.75;79.96
70072;BME280;57434;42.794;23.302;2023-01-31T04:37:14;95368.59;;;-1.64;80.03
70072;BME280;57434;42.794;23.302;2023-01-31T04:38:16;95367.06;;;-1.65;80.07
70072;BME280;57434;42.794;23.302;2023-01-31T04:39:18;95369.03;;;-1.66;80.21
70072;BME280;57434;42.794;23.302;2023-01-31T04:40:20;95375.72;;;-1.67;80.42
70072;BME280;57434;42.794;23.302;2023-01-31T04:41:21;95358.41;;;-1.87;80.75
70072;BME280;57434;42.794;23.302;2023-01-31T04:42:23;95329.94;;;-2.24;81.44
70072;BME280;57434;42.794;23.302;2023-01-31T04:43:25;95395.19;;;-2.05;81.49
70072;BME280;57434;42.794;23.302;2023-01-31T04:44:26;95350.47;;;-2.09;81.80
70072;BME280;57434;42.794;23.302;2023-01-31T04:45:28;95231.22;;;-2.85;82.02
70072;BME280;57434;42.794;23.302;2023-01-31T04:46:30;95366.28;;;-1.89;82.37
70072;BME280;57434;42.794;23.302;2023-01-31T04:47:32;95368.91;;;-1.82;82.32
70072;BME280;57434;42.794;23.302;2023-01-31T04:48:34;95341.28;;;-1.98;82.34
70072;BME280;57434;42.794;23.302;2023-01-31T04:49:35;95312.88;;;-2.12;82.33
70072;BME280;57434;42.794;23.302;2023-01-31T04:50:37;95349.31;;;-1.84;82.37
70072;BME280;57434;42.794;23.302;2023-01-31T04:51:39;95354.44;;;-1.63;82.08
70072;BME280;57434;42.794;23.302;2023-01-31T04:52:41;95319.44;;;-1.82;81.93
70072;BME280;57434;42.794;23.302;2023-01-31T04:53:43;95366.00;;;-1.52;81.77
70072;BME280;57434;42.794;23.302;2023-01-31T04:54:45;95334.47;;;-1.67;81.61
70072;BME280;57434;42.794;23.302;2023-01-31T04:55:47;95362.00;;;-1.47;81.61
70072;BME280;57434;42.794;23.302;2023-01-31T04:56:48;95303.69;;;-1.82;81.60
70072;BME280;57434;42.794;23.302;2023-01-31T04:57:50;95321.97;;;-1.72;81.54
70072;BME280;57434;42.794;23.302;2023-01-31T04:58:52;95345.59;;;-1.54;81.42
70072;BME280;57434;42.794;23.302;2023-01-31T04:59:54;95367.44;;;-1.44;81.56
70072;BME280;57434;42.794;23.302;2023-01-31T05:00:56;95389.81;;;-1.42;81.48
70072;BME280;57434;42.794;23.302;2023-01-31T05:01:58;95326.28;;;-1.71;81.37
70072;BME280;57434;42.794;23.302;2023-01-31T05:03:00;95372.81;;;-1.37;81.43
70072;BME280;57434;42.794;23.302;2023-01-31T05:04:02;95379.94;;;-1.39;81.36
70072;BME280;57434;42.794;23.302;2023-01-31T05:05:05;95392.56;;;-1.42;81.41
70072;BME280;57434;42.794;23.302;2023-01-31T05:06:07;95379.88;;;-1.36;81.55
70072;BME280;57434;42.794;23.302;2023-01-31T05:07:09;95301.28;;;-1.80;81.39
70072;BME280;57434;42.794;23.302;2023-01-31T05:08:11;95382.25;;;-1.38;81.47
70072;BME280;57434;42.794;23.302;2023-01-31T05:09:13;95372.94;;;-1.44;81.58
70072;BME280;57434;42.794;23.302;2023-01-31T05:10:15;95251.84;;;-2.26;81.42
70072;BME280;57434;42.794;23.302;2023-01-31T05:11:17;95375.28;;;-1.42;81.42
70072;BME280;57434;42.794;23.302;2023-01-31T05:12:19;95370.91;;;-1.40;81.39
70072;BME280;57434;42.794;23.302;2023-01-31T05:13:20;95366.19;;;-1.39;81.33
70072;BME280;57434;42.794;23.302;2023-01-31T05:14:22;95368.50;;;-1.38;81.46
70072;BME280;57434;42.794;23.302;2023-01-31T05:15:24;95333.56;;;-1.60;81.42
70072;BME280;57434;42.794;23.302;2023-01-31T05:16:26;95351.06;;;-1.51;81.38
70072;BME280;57434;42.794;23.302;2023-01-31T05:17:27;95378.69;;;-1.35;81.21
70072;BME280;57434;42.794;23.302;2023-01-31T05:18:29;95328.19;;;-1.67;81.21
70072;BME280;57434;42.794;23.302;2023-01-31T05:19:31;95342.53;;;-1.56;81.28
70072;BME280;57434;42.794;23.302;2023-01-31T05:20:36;95376.34;;;-1.36;81.46
70072;BME280;57434;42.794;23.302;2023-01-31T05:21:38;95363.19;;;-1.48;81.42
70072;BME280;57434;42.794;23.302;2023-01-31T05:22:39;95378.38;;;-1.40;81.48
70072;BME280;57434;42.794;23.302;2023-01-31T05:23:41;95301.06;;;-1.89;81.68
70072;BME280;57434;42.794;23.302;2023-01-31T05:24:43;95366.88;;;-1.55;81.72
70072;BME280;57434;42.794;23.302;2023-01-31T05:25:48;95243.31;;;-2.32;81.64
70072;BME280;57434;42.794;23.302;2023-01-31T05:26:51;95217.09;;;-2.60;81.74
70072;BME280;57434;42.794;23.302;2023-01-31T05:27:53;95312.13;;;-1.92;81.73
70072;BME280;57434;42.794;23.302;2023-01-31T05:28:55;95395.91;;;-1.54;81.70
70072;BME280;57434;42.794;23.302;2023-01-31T05:29:57;95397.28;;;-1.42;81.89
70072;BME280;57434;42.794;23.302;2023-01-31T05:31:04;95394.53;;;-1.42;81.85
70072;BME280;57434;42.794;23.302;2023-01-31T05:32:07;95386.22;;;-1.39;81.88
70072;BME280;57434;42.794;23.302;2023-01-31T05:33:09;95376.66;;;-1.54;81.89
70072;BME280;57434;42.794;23.302;2023-01-31T05:34:11;95398.06;;;-1.42;81.94
70072;BME280;57434;42.794;23.302;2023-01-31T05:35:12;95372.38;;;-1.55;81.88
70072;BME280;57434;42.794;23.302;2023-01-31T05:36:14;95349.41;;;-1.68;81.78
70072;BME280;57434;42.794;23.302;2023-01-31T05:37:16;95340.84;;;-1.74;81.92
70072;BME280;57434;42.794;23.302;2023-01-31T05:38:18;95408.22;;;-1.39;81.76
70072;BME280;57434;42.794;23.302;2023-01-31T05:39:20;95401.16;;;-1.40;81.92
70072;BME280;57434;42.794;23.302;2023-01-31T05:40:22;95400.75;;;-1.38;82.07
70072;BME280;57434;42.794;23.302;2023-01-31T05:41:24;95382.88;;;-1.50;82.04
70072;BME280;57434;42.794;23.302;2023-01-31T05:42:25;95359.16;;;-1.63;82.07
70072;BME280;57434;42.794;23.302;2023-01-31T05:43:27;95409.00;;;-1.38;82.13
70072;BME280;57434;42.794;23.302;2023-01-31T05:44:29;95388.38;;;-1.50;82.33
70072;BME280;57434;42.794;23.302;2023-01-31T05:45:31;95404.28;;;-1.38;82.30
70072;BME280;57434;42.794;23.302;2023-01-31T05:46:33;95334.50;;;-1.90;82.33
70072;BME280;57434;42.794;23.302;2023-01-31T05:47:35;95396.97;;;-1.48;82.40
70072;BME280;57434;42.794;23.302;2023-01-31T05:48:37;95281.91;;;-2.16;82.25
70072;BME280;57434;42.794;23.302;2023-01-31T05:49:39;95387.88;;;-1.45;82.29
70072;BME280;57434;42.794;23.302;2023-01-31T05:50:40;95328.31;;;-1.98;82.36
70072;BME280;57434;42.794;23.302;2023-01-31T05:51:42;95286.22;;;-2.15;82.46
70072;BME280;57434;42.794;23.302;2023-01-31T05:52:57;95336.75;;;-1.85;82.63
70072;BME280;57434;42.794;23.302;2023-01-31T05:53:59;95231.50;;;-2.52;82.61
70072;BME280;57434;42.794;23.302;2023-01-31T05:55:02;95377.22;;;-1.62;82.77
70072;BME280;57434;42.794;23.302;2023-01-31T05:56:04;95407.81;;;-1.37;82.80
70072;BME280;57434;42.794;23.302;2023-01-31T05:57:06;95376.31;;;-1.56;82.81
70072;BME280;57434;42.794;23.302;2023-01-31T05:58:07;95419.94;;;-1.35;82.71
70072;BME280;57434;42.794;23.302;2023-01-31T05:59:09;95374.09;;;-1.64;82.66
70072;BME280;57434;42.794;23.302;2023-01-31T06:00:12;95424.44;;;-1.44;82.58
70072;BME280;57434;42.794;23.302;2023-01-31T06:01:19;95385.25;;;-1.52;82.31
70072;BME280;57434;42.794;23.302;2023-01-31T06:02:23;95427.91;;;-1.40;82.17
70072;BME280;57434;42.794;23.302;2023-01-31T06:03:25;95416.31;;;-1.28;82.16
70072;BME280;57434;42.794;23.302;2023-01-31T06:04:26;95416.22;;;-1.24;82.01
70072;BME280;57434;42.794;23.302;2023-01-31T06:05:28;95404.00;;;-1.23;82.07
70072;BME280;57434;42.794;23.302;2023-01-31T06:06:31;95418.13;;;-1.21;82.08
70072;BME280;57434;42.794;23.302;2023-01-31T06:07:33;95407.13;;;-1.21;82.08
70072;BME280;57434;42.794;23.302;2023-01-31T06:08:35;95411.69;;;-1.35;82.00